sensor_id;sensor_type;location;lat;lon;timestamp;P1;durP1;ratioP1;P2;durP2;ratioP2
26191;SDS011;13935;55.672;37.764;2023-09-19T00:01:04;59.42;;;39.60;;
26191;SDS011;13935;55.672;37.764;2023-09-19T00:02:09;60.40;;;39.72;;
26191;SDS011;13935;55.672;37.764;2023-09-19T00:03:13;59.75;;;39.20;;
26191;SDS011;13935;55.672;37.764;2023-09-19T00:04:15;62.03;;;42.33;;
26191;SDS011;13935;55.672;37.764;2023-09-19T00:05:21;61.53;;;41.63;;
26191;SDS011;13935;55.672;37.764;2023-09-19T00:06:29;72.28;;;44.85;;
26191;SDS011;13935;55.672;37.764;2023-09-19T00:07:32;68.75;;;44.78;;
26191;SDS011;13935;55.672;37.764;2023-09-19T00:08:34;63.63;;;39.80;;
26191;SDS011;13935;55.672;37.764;2023-09-19T00:09:36;65.40;;;40.42;;
26191;SDS011;13935;55.672;37.764;2023-09-19T00:10:39;58.65;;;40.17;;
26191;SDS011;13935;55.672;37.764;2023-09-19T00:11:42;67.43;;;40.00;;
26191;SDS011;13935;55.672;37.764;2023-09-19T00:12:46;66.28;;;40.78;;
26191;SDS011;13935;55.672;37.764;2023-09-19T00:13:48;67.28;;;42.85;;
26191;SDS011;13935;55.672;37.764;2023-09-19T00:14:51;65.75;;;44.20;;
26191;SDS011;13935;55.672;37.764;2023-09-19T00:15:54;64.47;;;43.90;;
26191;SDS011;13935;55.672;37.764;2023-09-19T00:16:57;73.35;;;46.17;;
26191;SDS011;13935;55.672;37.764;2023-09-19T00:17:59;64.35;;;43.63;;
26191;SDS011;13935;55.672;37.764;2023-09-19T00:19:01;70.07;;;44.47;;
26191;SDS011;13935;55.672;37.764;2023-09-19T00:20:10;70.28;;;45.22;;
26191;SDS011;13935;55.672;37.764;2023-09-19T00:21:14;77.97;;;50.35;;
26191;SDS011;13935;55.672;37.764;2023-09-19T00:22:16;74.43;;;47.70;;
26191;SDS011;13935;55.672;37.764;2023-09-19T00:23:20;74.53;;;46.95;;
26191;SDS011;13935;55.672;37.764;2023-09-19T00:24:22;75.07;;;47.30;;
26191;SDS011;13935;55.672;37.764;2023-09-19T00:25:26;69.30;;;44.90;;
26191;SDS011;13935;55.672;37.764;2023-09-19T00:26:28;67.18;;;44.42;;
26191;SDS011;13935;55.672;37.764;2023-09-19T00:27:32;72.18;;;44.60;;
26191;SDS011;13935;55.672;37.764;2023-09-19T00:28:35;73.97;;;46.30;;
26191;SDS011;13935;55.672;37.764;2023-09-19T00:29:37;72.45;;;45.25;;
26191;SDS011;13935;55.672;37.764;2023-09-19T00:30:39;72.22;;;45.53;;
26191;SDS011;13935;55.672;37.764;2023-09-19T00:31:44;68.32;;;43.55;;
26191;SDS011;13935;55.672;37.764;2023-09-19T00:32:47;68.47;;;44.60;;
26191;SDS011;13935;55.672;37.764;2023-09-19T00:33:49;68.20;;;44.78;;
26191;SDS011;13935;55.672;37.764;2023-09-19T00:34:51;75.65;;;45.08;;
26191;SDS011;13935;55.672;37.764;2023-09-19T00:35:53;70.25;;;45.15;;
26191;SDS011;13935;55.672;37.764;2023-09-19T00:36:56;69.68;;;43.22;;
26191;SDS011;13935;55.672;37.764;2023-09-19T00:37:58;64.40;;;42.88;;
26191;SDS011;13935;55.672;37.764;2023-09-19T00:39:00;63.42;;;42.63;;
26191;SDS011;13935;55.672;37.764;2023-09-19T00:40:03;69.43;;;43.38;;
26191;SDS011;13935;55.672;37.764;2023-09-19T00:41:07;66.32;;;42.78;;
26191;SDS011;13935;55.672;37.764;2023-09-19T00:42:09;63.83;;;41.67;;
26191;SDS011;13935;55.672;37.764;2023-09-19T00:43:21;66.72;;;41.28;;
26191;SDS011;13935;55.672;37.764;2023-09-19T00:44:27;61.05;;;39.45;;
26191;SDS011;13935;55.672;37.764;2023-09-19T00:45:29;57.75;;;37.80;;
26191;SDS011;13935;55.672;37.764;2023-09-19T00:46:31;62.08;;;39.78;;
26191;SDS011;13935;55.672;37.764;2023-09-19T00:47:34;57.08;;;37.03;;
26191;SDS011;13935;55.672;37.764;2023-09-19T00:48:40;59.63;;;37.35;;
26191;SDS011;13935;55.672;37.764;2023-09-19T00:49:46;60.78;;;38.95;;
26191;SDS011;13935;55.672;37.764;2023-09-19T00:50:51;58.88;;;36.47;;
26191;SDS011;13935;55.672;37.764;2023-09-19T00:51:55;55.55;;;35.60;;
26191;SDS011;13935;55.672;37.764;2023-09-19T00:52:57;57.40;;;36.60;;
26191;SDS011;13935;55.672;37.764;2023-09-19T00:54:02;57.30;;;35.38;;
26191;SDS011;13935;55.672;37.764;2023-09-19T00:55:06;58.33;;;36.20;;
26191;SDS011;13935;55.672;37.764;2023-09-19T00:56:09;57.65;;;35.88;;
26191;SDS011;13935;55.672;37.764;2023-09-19T00:57:11;56.38;;;35.03;;
26191;SDS011;13935;55.672;37.764;2023-09-19T00:58:13;51.38;;;35.03;;
26191;SDS011;13935;55.672;37.764;2023-09-19T00:59:15;55.22;;;34.75;;
26191;SDS011;13935;55.672;37.764;2023-09-19T01:00:18;54.08;;;33.50;;
26191;SDS011;13935;55.672;37.764;2023-09-19T01:01:22;54.67;;;33.80;;
26191;SDS011;13935;55.672;37.764;2023-09-19T01:02:25;51.08;;;32.00;;
26191;SDS011;13935;55.672;37.764;2023-09-19T01:03:30;50.03;;;32.92;;
26191;SDS011;13935;55.672;37.764;2023-09-19T01:04:32;46.83;;;31.50;;
26191;SDS011;13935;55.672;37.764;2023-09-19T01:05:35;49.70;;;32.80;;
26191;SDS011;13935;55.672;37.764;2023-09-19T01:06:37;50.05;;;32.28;;
26191;SDS011;13935;55.672;37.764;2023-09-19T01:07:41;49.10;;;31.58;;
26191;SDS011;13935;55.672;37.764;2023-09-19T01:08:43;46.15;;;31.55;;
26191;SDS011;13935;55.672;37.764;2023-09-19T01:09:45;50.95;;;31.60;;
26191;SDS011;13935;55.672;37.764;2023-09-19T01:10:59;44.13;;;30.50;;
26191;SDS011;13935;55.672;37.764;2023-09-19T01:12:10;48.65;;;30.95;;
26191;SDS011;13935;55.672;37.764;2023-09-19T01:13:22;49.25;;;30.75;;
26191;SDS011;13935;55.672;37.764;2023-09-19T01:15:11;48.70;;;30.70;;
26191;SDS011;13935;55.672;37.764;2023-09-19T01:18:02;43.15;;;27.98;;
26191;SDS011;13935;55.672;37.764;2023-09-19T01:20:32;41.22;;;27.77;;
26191;SDS011;13935;55.672;37.764;2023-09-19T01:22:45;45.55;;;27.98;;
26191;SDS011;13935;55.672;37.764;2023-09-19T01:23:21;44.95;;;28.23;;
26191;SDS011;13935;55.672;37.764;2023-09-19T01:28:44;36.55;;;26.00;;
26191;SDS011;13935;55.672;37.764;2023-09-19T01:30:07;41.63;;;25.88;;
26191;SDS011;13935;55.672;37.764;2023-09-19T01:31:12;39.38;;;25.50;;
26191;SDS011;13935;55.672;37.764;2023-09-19T01:32:19;38.15;;;24.45;;
26191;SDS011;13935;55.672;37.764;2023-09-19T01:33:26;40.55;;;26.15;;
26191;SDS011;13935;55.672;37.764;2023-09-19T01:34:47;43.38;;;24.85;;
26191;SDS011;13935;55.672;37.764;2023-09-19T01:35:55;37.13;;;24.70;;
26191;SDS011;13935;55.672;37.764;2023-09-19T01:37:00;41.00;;;24.27;;
26191;SDS011;13935;55.672;37.764;2023-09-19T01:38:03;35.95;;;24.98;;
26191;SDS011;13935;55.672;37.764;2023-09-19T01:39:07;36.13;;;24.50;;
26191;SDS011;13935;55.672;37.764;2023-09-19T01:40:14;34.65;;;24.13;;
26191;SDS011;13935;55.672;37.764;2023-09-19T01:41:26;34.78;;;23.25;;
26191;SDS011;13935;55.672;37.764;2023-09-19T01:44:09;36.58;;;23.70;;
26191;SDS011;13935;55.672;37.764;2023-09-19T01:46:35;32.28;;;22.30;;
26191;SDS011;13935;55.672;37.764;2023-09-19T01:47:46;35.08;;;23.38;;
26191;SDS011;13935;55.672;37.764;2023-09-19T01:48:57;32.45;;;23.27;;
26191;SDS011;13935;55.672;37.764;2023-09-19T01:50:30;34.03;;;22.15;;
26191;SDS011;13935;55.672;37.764;2023-09-19T01:51:46;34.30;;;22.65;;
26191;SDS011;13935;55.672;37.764;2023-09-19T01:52:57;30.60;;;21.40;;
26191;SDS011;13935;55.672;37.764;2023-09-19T01:54:09;32.25;;;22.75;;
26191;SDS011;13935;55.672;37.764;2023-09-19T01:55:13;31.95;;;21.77;;
26191;SDS011;13935;55.672;37.764;2023-09-19T01:56:21;32.92;;;21.65;;
26191;SDS011;13935;55.672;37.764;2023-09-19T01:57:30;36.83;;;22.83;;
26191;SDS011;13935;55.672;37.764;2023-09-19T01:58:45;33.33;;;20.95;;
26191;SDS011;13935;55.672;37.764;2023-09-19T01:59:54;31.10;;;22.10;;
26191;SDS011;13935;55.672;37.764;2023-09-19T02:01:02;31.23;;;22.00;;
26191;SDS011;13935;55.672;37.764;2023-09-19T02:02:07;32.17;;;21.08;;
26191;SDS011;13935;55.672;37.764;2023-09-19T02:03:11;33.33;;;21.77;;
26191;SDS011;13935;55.672;37.764;2023-09-19T02:04:14;35.22;;;22.73;;
26191;SDS011;13935;55.672;37.764;2023-09-19T02:05:25;31.77;;;21.95;;
26191;SDS011;13935;55.672;37.764;2023-09-19T02:06:29;31.58;;;21.05;;
26191;SDS011;13935;55.672;37.764;2023-09-19T02:07:32;31.92;;;21.70;;
26191;SDS011;13935;55.672;37.764;2023-09-19T02:08:34;34.83;;;22.55;;
26191;SDS011;13935;55.672;37.764;2023-09-19T02:09:37;33.22;;;22.00;;
26191;SDS011;13935;55.672;37.764;2023-09-19T02:10:40;35.55;;;22.35;;
26191;SDS011;13935;55.672;37.764;2023-09-19T02:11:42;36.00;;;21.95;;
26191;SDS011;13935;55.672;37.764;2023-09-19T02:12:44;28.85;;;21.30;;
26191;SDS011;13935;55.672;37.764;2023-09-19T02:13:47;31.77;;;21.02;;
26191;SDS011;13935;55.672;37.764;2023-09-19T02:14:51;36.13;;;21.95;;
26191;SDS011;13935;55.672;37.764;2023-09-19T02:15:52;33.85;;;20.58;;
26191;SDS011;13935;55.672;37.764;2023-09-19T02:16:55;31.70;;;21.98;;
26191;SDS011;13935;55.672;37.764;2023-09-19T02:17:59;38.42;;;21.45;;
26191;SDS011;13935;55.672;37.764;2023-09-19T02:19:01;33.83;;;21.13;;
26191;SDS011;13935;55.672;37.764;2023-09-19T02:20:07;35.00;;;21.85;;
26191;SDS011;13935;55.672;37.764;2023-09-19T02:21:11;34.03;;;22.80;;
26191;SDS011;13935;55.672;37.764;2023-09-19T02:22:14;37.83;;;24.42;;
26191;SDS011;13935;55.672;37.764;2023-09-19T02:23:18;30.45;;;21.15;;
26191;SDS011;13935;55.672;37.764;2023-09-19T02:24:20;30.08;;;20.88;;
26191;SDS011;13935;55.672;37.764;2023-09-19T02:25:22;33.25;;;22.20;;
26191;SDS011;13935;55.672;37.764;2023-09-19T02:26:24;33.28;;;21.20;;
26191;SDS011;13935;55.672;37.764;2023-09-19T02:27:26;31.80;;;21.05;;
26191;SDS011;13935;55.672;37.764;2023-09-19T02:28:28;32.35;;;21.73;;
26191;SDS011;13935;55.672;37.764;2023-09-19T02:29:37;29.60;;;20.35;;
26191;SDS011;13935;55.672;37.764;2023-09-19T02:30:39;33.67;;;20.65;;
26191;SDS011;13935;55.672;37.764;2023-09-19T02:31:41;30.70;;;21.00;;
26191;SDS011;13935;55.672;37.764;2023-09-19T02:32:43;31.25;;;20.48;;
26191;SDS011;13935;55.672;37.764;2023-09-19T02:33:45;32.67;;;21.77;;
26191;SDS011;13935;55.672;37.764;2023-09-19T02:34:48;29.70;;;20.90;;
26191;SDS011;13935;55.672;37.764;2023-09-19T02:35:56;33.97;;;21.02;;
26191;SDS011;13935;55.672;37.764;2023-09-19T02:37:03;30.98;;;21.38;;
26191;SDS011;13935;55.672;37.764;2023-09-19T02:38:06;35.75;;;21.52;;
26191;SDS011;13935;55.672;37.764;2023-09-19T02:39:13;28.70;;;19.80;;
26191;SDS011;13935;55.672;37.764;2023-09-19T02:40:15;32.20;;;20.27;;
26191;SDS011;13935;55.672;37.764;2023-09-19T02:41:21;32.33;;;21.10;;
26191;SDS011;13935;55.672;37.764;2023-09-19T02:42:23;32.88;;;21.40;;
26191;SDS011;13935;55.672;37.764;2023-09-19T02:43:25;33.30;;;20.13;;
26191;SDS011;13935;55.672;37.764;2023-09-19T02:44:28;33.53;;;21.40;;
26191;SDS011;13935;55.672;37.764;2023-09-19T02:45:30;33.75;;;21.60;;
26191;SDS011;13935;55.672;37.764;2023-09-19T02:46:35;31.75;;;21.40;;
26191;SDS011;13935;55.672;37.764;2023-09-19T02:47:40;32.80;;;21.70;;
26191;SDS011;13935;55.672;37.764;2023-09-19T02:48:42;34.67;;;21.50;;
26191;SDS011;13935;55.672;37.764;2023-09-19T02:49:45;33.03;;;21.70;;
26191;SDS011;13935;55.672;37.764;2023-09-19T02:50:50;36.17;;;23.20;;
26191;SDS011;13935;55.672;37.764;2023-09-19T02:51:52;39.33;;;23.17;;
26191;SDS011;13935;55.672;37.764;2023-09-19T02:52:54;36.85;;;23.13;;
26191;SDS011;13935;55.672;37.764;2023-09-19T02:53:56;38.13;;;22.55;;
26191;SDS011;13935;55.672;37.764;2023-09-19T02:54:59;35.35;;;22.65;;
26191;SDS011;13935;55.672;37.764;2023-09-19T02:56:03;38.35;;;23.17;;
26191;SDS011;13935;55.672;37.764;2023-09-19T02:57:06;41.13;;;22.63;;
26191;SDS011;13935;55.672;37.764;2023-09-19T02:58:09;38.22;;;23.73;;
26191;SDS011;13935;55.672;37.764;2023-09-19T02:59:13;37.47;;;22.10;;
26191;SDS011;13935;55.672;37.764;2023-09-19T03:00:17;36.80;;;22.88;;
26191;SDS011;13935;55.672;37.764;2023-09-19T03:01:23;35.53;;;23.05;;
26191;SDS011;13935;55.672;37.764;2023-09-19T03:02:26;38.03;;;23.10;;
26191;SDS011;13935;55.672;37.764;2023-09-19T03:03:29;36.92;;;21.95;;
26191;SDS011;13935;55.672;37.764;2023-09-19T03:04:31;36.15;;;22.45;;
26191;SDS011;13935;55.672;37.764;2023-09-19T03:05:35;34.45;;;21.73;;
26191;SDS011;13935;55.672;37.764;2023-09-19T03:06:37;36.03;;;22.52;;
26191;SDS011;13935;55.672;37.764;2023-09-19T03:07:40;35.92;;;21.40;;
26191;SDS011;13935;55.672;37.764;2023-09-19T03:08:44;36.33;;;22.33;;
26191;SDS011;13935;55.672;37.764;2023-09-19T03:09:48;43.42;;;21.77;;
26191;SDS011;13935;55.672;37.764;2023-09-19T03:10:50;33.90;;;20.90;;
26191;SDS011;13935;55.672;37.764;2023-09-19T03:11:52;39.10;;;22.30;;
26191;SDS011;13935;55.672;37.764;2023-09-19T03:12:56;33.13;;;20.63;;
26191;SDS011;13935;55.672;37.764;2023-09-19T03:13:59;32.35;;;21.67;;
26191;SDS011;13935;55.672;37.764;2023-09-19T03:15:02;35.83;;;20.55;;
26191;SDS011;13935;55.672;37.764;2023-09-19T03:16:06;34.47;;;21.70;;
26191;SDS011;13935;55.672;37.764;2023-09-19T03:17:09;35.00;;;21.23;;
26191;SDS011;13935;55.672;37.764;2023-09-19T03:18:11;31.25;;;20.42;;
26191;SDS011;13935;55.672;37.764;2023-09-19T03:19:14;39.10;;;21.70;;
26191;SDS011;13935;55.672;37.764;2023-09-19T03:20:17;38.38;;;22.15;;
26191;SDS011;13935;55.672;37.764;2023-09-19T03:21:21;36.70;;;20.98;;
26191;SDS011;13935;55.672;37.764;2023-09-19T03:22:23;34.95;;;20.77;;
26191;SDS011;13935;55.672;37.764;2023-09-19T03:23:27;36.70;;;21.70;;
26191;SDS011;13935;55.672;37.764;2023-09-19T03:24:30;31.00;;;19.88;;
26191;SDS011;13935;55.672;37.764;2023-09-19T03:25:34;36.78;;;21.08;;
26191;SDS011;13935;55.672;37.764;2023-09-19T03:26:38;36.30;;;21.23;;
26191;SDS011;13935;55.672;37.764;2023-09-19T03:27:40;36.30;;;21.27;;
26191;SDS011;13935;55.672;37.764;2023-09-19T03:28:42;32.53;;;20.98;;
26191;SDS011;13935;55.672;37.764;2023-09-19T03:29:46;33.30;;;21.40;;
26191;SDS011;13935;55.672;37.764;2023-09-19T03:31:01;36.17;;;21.20;;
26191;SDS011;13935;55.672;37.764;2023-09-19T03:32:09;29.05;;;20.33;;
26191;SDS011;13935;55.672;37.764;2023-09-19T03:33:12;34.38;;;20.92;;
26191;SDS011;13935;55.672;37.764;2023-09-19T03:34:15;32.78;;;21.13;;
26191;SDS011;13935;55.672;37.764;2023-09-19T03:35:18;34.55;;;19.98;;
26191;SDS011;13935;55.672;37.764;2023-09-19T03:36:21;30.90;;;20.52;;
26191;SDS011;13935;55.672;37.764;2023-09-19T03:37:23;38.05;;;25.38;;
26191;SDS011;13935;55.672;37.764;2023-09-19T03:38:25;47.70;;;31.00;;
26191;SDS011;13935;55.672;37.764;2023-09-19T03:39:27;33.70;;;21.90;;
26191;SDS011;13935;55.672;37.764;2023-09-19T03:40:30;31.77;;;20.33;;
26191;SDS011;13935;55.672;37.764;2023-09-19T03:41:32;33.20;;;20.33;;
26191;SDS011;13935;55.672;37.764;2023-09-19T03:42:37;35.00;;;20.27;;
26191;SDS011;13935;55.672;37.764;2023-09-19T03:43:41;29.40;;;20.35;;
26191;SDS011;13935;55.672;37.764;2023-09-19T03:44:43;34.15;;;21.35;;
26191;SDS011;13935;55.672;37.764;2023-09-19T03:45:46;31.92;;;21.02;;
26191;SDS011;13935;55.672;37.764;2023-09-19T03:46:48;38.90;;;23.83;;
26191;SDS011;13935;55.672;37.764;2023-09-19T03:47:51;41.53;;;24.90;;
26191;SDS011;13935;55.672;37.764;2023-09-19T03:48:56;37.65;;;21.80;;
26191;SDS011;13935;55.672;37.764;2023-09-19T03:49:58;40.80;;;22.38;;
26191;SDS011;13935;55.672;37.764;2023-09-19T03:51:00;36.20;;;21.38;;
26191;SDS011;13935;55.672;37.764;2023-09-19T03:52:03;32.10;;;20.58;;
26191;SDS011;13935;55.672;37.764;2023-09-19T03:53:06;40.90;;;22.15;;
26191;SDS011;13935;55.672;37.764;2023-09-19T03:54:09;39.03;;;20.85;;
26191;SDS011;13935;55.672;37.764;2023-09-19T03:55:11;34.72;;;21.48;;
26191;SDS011;13935;55.672;37.764;2023-09-19T03:56:15;32.30;;;19.92;;
26191;SDS011;13935;55.672;37.764;2023-09-19T03:57:17;35.58;;;21.92;;
26191;SDS011;13935;55.672;37.764;2023-09-19T03:58:22;35.08;;;20.42;;
26191;SDS011;13935;55.672;37.764;2023-09-19T03:59:24;33.28;;;21.88;;
26191;SDS011;13935;55.672;37.764;2023-09-19T04:00:26;32.13;;;21.35;;
26191;SDS011;13935;55.672;37.764;2023-09-19T04:01:28;36.70;;;21.25;;
26191;SDS011;13935;55.672;37.764;2023-09-19T04:02:33;34.15;;;20.90;;
26191;SDS011;13935;55.672;37.764;2023-09-19T04:03:36;32.47;;;19.98;;
26191;SDS011;13935;55.672;37.764;2023-09-19T04:04:52;34.22;;;21.40;;
26191;SDS011;13935;55.672;37.764;2023-09-19T04:05:54;36.65;;;21.15;;
26191;SDS011;13935;55.672;37.764;2023-09-19T04:06:56;41.17;;;22.00;;
26191;SDS011;13935;55.672;37.764;2023-09-19T04:07:59;34.75;;;20.75;;
26191;SDS011;13935;55.672;37.764;2023-09-19T04:09:02;38.70;;;20.48;;
26191;SDS011;13935;55.672;37.764;2023-09-19T04:10:05;28.35;;;20.65;;
26191;SDS011;13935;55.672;37.764;2023-09-19T04:11:07;39.38;;;20.92;;
26191;SDS011;13935;55.672;37.764;2023-09-19T04:12:09;32.35;;;21.42;;
26191;SDS011;13935;55.672;37.764;2023-09-19T04:13:11;32.55;;;20.77;;
26191;SDS011;13935;55.672;37.764;2023-09-19T04:14:13;34.05;;;21.08;;
26191;SDS011;13935;55.672;37.764;2023-09-19T04:15:15;33.67;;;20.55;;
26191;SDS011;13935;55.672;37.764;2023-09-19T04:16:18;30.23;;;21.02;;
26191;SDS011;13935;55.672;37.764;2023-09-19T04:17:21;29.13;;;20.17;;
26191;SDS011;13935;55.672;37.764;2023-09-19T04:18:25;30.20;;;20.70;;
26191;SDS011;13935;55.672;37.764;2023-09-19T04:19:28;29.70;;;20.83;;
26191;SDS011;13935;55.672;37.764;2023-09-19T04:20:30;32.38;;;20.50;;
26191;SDS011;13935;55.672;37.764;2023-09-19T04:21:32;34.90;;;21.13;;
26191;SDS011;13935;55.672;37.764;2023-09-19T04:22:34;29.80;;;21.15;;
26191;SDS011;13935;55.672;37.764;2023-09-19T04:23:35;33.17;;;21.50;;
26191;SDS011;13935;55.672;37.764;2023-09-19T04:24:38;31.52;;;20.95;;
26191;SDS011;13935;55.672;37.764;2023-09-19T04:25:40;35.75;;;21.63;;
26191;SDS011;13935;55.672;37.764;2023-09-19T04:26:42;29.13;;;20.67;;
26191;SDS011;13935;55.672;37.764;2023-09-19T04:27:44;28.48;;;20.80;;
26191;SDS011;13935;55.672;37.764;2023-09-19T04:28:46;37.10;;;21.30;;
26191;SDS011;13935;55.672;37.764;2023-09-19T04:29:48;39.60;;;21.70;;
26191;SDS011;13935;55.672;37.764;2023-09-19T04:30:53;30.15;;;21.05;;
26191;SDS011;13935;55.672;37.764;2023-09-19T04:31:56;29.13;;;21.17;;
26191;SDS011;13935;55.672;37.764;2023-09-19T04:33:00;32.75;;;20.60;;
26191;SDS011;13935;55.672;37.764;2023-09-19T04:34:06;29.70;;;20.98;;
26191;SDS011;13935;55.672;37.764;2023-09-19T04:35:12;32.60;;;20.95;;
26191;SDS011;13935;55.672;37.764;2023-09-19T04:36:14;30.98;;;20.35;;
26191;SDS011;13935;55.672;37.764;2023-09-19T04:37:37;31.23;;;20.17;;
26191;SDS011;13935;55.672;37.764;2023-09-19T04:38:43;30.13;;;20.17;;
26191;SDS011;13935;55.672;37.764;2023-09-19T04:39:47;31.00;;;21.17;;
26191;SDS011;13935;55.672;37.764;2023-09-19T04:40:49;30.85;;;20.75;;
26191;SDS011;13935;55.672;37.764;2023-09-19T04:41:51;33.20;;;21.17;;
26191;SDS011;13935;55.672;37.764;2023-09-19T04:42:54;31.60;;;22.13;;
26191;SDS011;13935;55.672;37.764;2023-09-19T04:43:59;37.65;;;21.70;;
26191;SDS011;13935;55.672;37.764;2023-09-19T04:45:02;32.15;;;20.88;;
26191;SDS011;13935;55.672;37.764;2023-09-19T04:46:05;35.17;;;21.38;;
26191;SDS011;13935;55.672;37.764;2023-09-19T04:47:08;30.73;;;21.25;;
26191;SDS011;13935;55.672;37.764;2023-09-19T04:48:10;35.90;;;20.98;;
26191;SDS011;13935;55.672;37.764;2023-09-19T04:49:12;31.55;;;20.90;;
26191;SDS011;13935;55.672;37.764;2023-09-19T04:50:15;31.77;;;20.98;;
26191;SDS011;13935;55.672;37.764;2023-09-19T04:51:18;29.75;;;20.98;;
26191;SDS011;13935;55.672;37.764;2023-09-19T04:52:22;32.92;;;21.35;;
26191;SDS011;13935;55.672;37.764;2023-09-19T04:53:24;30.08;;;22.27;;
26191;SDS011;13935;55.672;37.764;2023-09-19T04:54:26;29.52;;;21.40;;
26191;SDS011;13935;55.672;37.764;2023-09-19T04:55:28;37.03;;;22.63;;
26191;SDS011;13935;55.672;37.764;2023-09-19T04:56:32;30.48;;;21.17;;
26191;SDS011;13935;55.672;37.764;2023-09-19T04:57:35;36.58;;;23.45;;
26191;SDS011;13935;55.672;37.764;2023-09-19T04:58:38;32.88;;;21.77;;
26191;SDS011;13935;55.672;37.764;2023-09-19T04:59:40;33.78;;;22.35;;
26191;SDS011;13935;55.672;37.764;2023-09-19T05:00:42;33.83;;;22.10;;
26191;SDS011;13935;55.672;37.764;2023-09-19T05:01:45;31.67;;;22.02;;
26191;SDS011;13935;55.672;37.764;2023-09-19T05:02:51;32.17;;;21.73;;
26191;SDS011;13935;55.672;37.764;2023-09-19T05:03:54;33.95;;;21.55;;
26191;SDS011;13935;55.672;37.764;2023-09-19T05:04:56;32.75;;;22.10;;
26191;SDS011;13935;55.672;37.764;2023-09-19T05:06:01;32.25;;;21.95;;
26191;SDS011;13935;55.672;37.764;2023-09-19T05:07:02;35.30;;;21.85;;
26191;SDS011;13935;55.672;37.764;2023-09-19T05:08:05;32.80;;;23.77;;
26191;SDS011;13935;55.672;37.764;2023-09-19T05:09:07;33.85;;;23.23;;
26191;SDS011;13935;55.672;37.764;2023-09-19T05:10:10;32.75;;;22.80;;
26191;SDS011;13935;55.672;37.764;2023-09-19T05:11:13;38.88;;;23.80;;
26191;SDS011;13935;55.672;37.764;2023-09-19T05:12:15;34.33;;;22.17;;
26191;SDS011;13935;55.672;37.764;2023-09-19T05:13:17;33.95;;;22.27;;
26191;SDS011;13935;55.672;37.764;2023-09-19T05:14:19;30.35;;;22.27;;
26191;SDS011;13935;55.672;37.764;2023-09-19T05:15:22;33.58;;;22.30;;
26191;SDS011;13935;55.672;37.764;2023-09-19T05:16:24;33.08;;;22.33;;
26191;SDS011;13935;55.672;37.764;2023-09-19T05:17:26;31.45;;;22.35;;
26191;SDS011;13935;55.672;37.764;2023-09-19T05:18:28;36.50;;;22.50;;
26191;SDS011;13935;55.672;37.764;2023-09-19T05:19:32;37.40;;;22.42;;
26191;SDS011;13935;55.672;37.764;2023-09-19T05:20:34;35.42;;;22.02;;
26191;SDS011;13935;55.672;37.764;2023-09-19T05:21:39;42.80;;;22.60;;
26191;SDS011;13935;55.672;37.764;2023-09-19T05:22:41;35.33;;;23.17;;
26191;SDS011;13935;55.672;37.764;2023-09-19T05:23:45;32.47;;;22.38;;
26191;SDS011;13935;55.672;37.764;2023-09-19T05:24:46;59.30;;;36.33;;
26191;SDS011;13935;55.672;37.764;2023-09-19T05:25:49;35.67;;;23.05;;
26191;SDS011;13935;55.672;37.764;2023-09-19T05:26:53;38.78;;;24.65;;
26191;SDS011;13935;55.672;37.764;2023-09-19T05:27:57;34.33;;;24.20;;
26191;SDS011;13935;55.672;37.764;2023-09-19T05:29:00;33.33;;;23.15;;
26191;SDS011;13935;55.672;37.764;2023-09-19T05:30:03;34.58;;;22.30;;
26191;SDS011;13935;55.672;37.764;2023-09-19T05:31:06;34.50;;;22.48;;
26191;SDS011;13935;55.672;37.764;2023-09-19T05:32:08;34.65;;;22.58;;
26191;SDS011;13935;55.672;37.764;2023-09-19T05:33:11;34.00;;;22.83;;
26191;SDS011;13935;55.672;37.764;2023-09-19T05:34:13;32.13;;;22.30;;
26191;SDS011;13935;55.672;37.764;2023-09-19T05:35:16;36.47;;;22.38;;
26191;SDS011;13935;55.672;37.764;2023-09-19T05:36:17;32.13;;;22.40;;
26191;SDS011;13935;55.672;37.764;2023-09-19T05:37:19;32.75;;;22.60;;
26191;SDS011;13935;55.672;37.764;2023-09-19T05:38:22;34.50;;;22.30;;
26191;SDS011;13935;55.672;37.764;2023-09-19T05:39:24;32.35;;;21.40;;
26191;SDS011;13935;55.672;37.764;2023-09-19T05:40:26;30.60;;;21.50;;
26191;SDS011;13935;55.672;37.764;2023-09-19T05:41:29;32.75;;;20.63;;
26191;SDS011;13935;55.672;37.764;2023-09-19T05:42:32;38.97;;;22.25;;
26191;SDS011;13935;55.672;37.764;2023-09-19T05:43:34;33.35;;;21.75;;
26191;SDS011;13935;55.672;37.764;2023-09-19T05:44:39;36.83;;;22.15;;
26191;SDS011;13935;55.672;37.764;2023-09-19T05:45:42;31.33;;;19.75;;
26191;SDS011;13935;55.672;37.764;2023-09-19T05:46:44;27.38;;;20.23;;
26191;SDS011;13935;55.672;37.764;2023-09-19T05:47:48;27.52;;;19.05;;
26191;SDS011;13935;55.672;37.764;2023-09-19T05:48:51;29.52;;;19.77;;
26191;SDS011;13935;55.672;37.764;2023-09-19T05:49:53;29.42;;;18.98;;
26191;SDS011;13935;55.672;37.764;2023-09-19T05:50:56;27.88;;;19.23;;
26191;SDS011;13935;55.672;37.764;2023-09-19T05:51:58;28.73;;;17.90;;
26191;SDS011;13935;55.672;37.764;2023-09-19T05:53:00;28.10;;;19.60;;
26191;SDS011;13935;55.672;37.764;2023-09-19T05:54:02;30.88;;;18.65;;
26191;SDS011;13935;55.672;37.764;2023-09-19T05:55:06;24.65;;;18.13;;
26191;SDS011;13935;55.672;37.764;2023-09-19T05:56:09;21.77;;;16.88;;
26191;SDS011;13935;55.672;37.764;2023-09-19T05:57:12;33.65;;;17.90;;
26191;SDS011;13935;55.672;37.764;2023-09-19T05:58:14;23.35;;;16.80;;
26191;SDS011;13935;55.672;37.764;2023-09-19T05:59:19;25.67;;;17.05;;
26191;SDS011;13935;55.672;37.764;2023-09-19T06:00:21;28.08;;;17.77;;
26191;SDS011;13935;55.672;37.764;2023-09-19T06:01:24;26.33;;;17.88;;
26191;SDS011;13935;55.672;37.764;2023-09-19T06:02:26;26.95;;;17.15;;
26191;SDS011;13935;55.672;37.764;2023-09-19T06:03:30;25.65;;;17.58;;
26191;SDS011;13935;55.672;37.764;2023-09-19T06:04:33;26.67;;;17.63;;
26191;SDS011;13935;55.672;37.764;2023-09-19T06:05:35;24.70;;;17.60;;
26191;SDS011;13935;55.672;37.764;2023-09-19T06:06:38;21.92;;;17.25;;
26191;SDS011;13935;55.672;37.764;2023-09-19T06:07:41;25.50;;;17.25;;
26191;SDS011;13935;55.672;37.764;2023-09-19T06:08:44;24.38;;;17.50;;
26191;SDS011;13935;55.672;37.764;2023-09-19T06:09:46;26.25;;;18.00;;
26191;SDS011;13935;55.672;37.764;2023-09-19T06:10:48;25.25;;;17.05;;
26191;SDS011;13935;55.672;37.764;2023-09-19T06:11:50;26.60;;;16.48;;
26191;SDS011;13935;55.672;37.764;2023-09-19T06:12:53;21.42;;;16.95;;
26191;SDS011;13935;55.672;37.764;2023-09-19T06:13:56;25.30;;;16.27;;
26191;SDS011;13935;55.672;37.764;2023-09-19T06:14:59;25.42;;;17.40;;
26191;SDS011;13935;55.672;37.764;2023-09-19T06:16:01;24.75;;;16.50;;
26191;SDS011;13935;55.672;37.764;2023-09-19T06:17:07;23.90;;;15.70;;
26191;SDS011;13935;55.672;37.764;2023-09-19T06:18:10;26.13;;;16.52;;
26191;SDS011;13935;55.672;37.764;2023-09-19T06:19:17;22.58;;;16.10;;
26191;SDS011;13935;55.672;37.764;2023-09-19T06:20:19;24.60;;;16.15;;